Time;durP1;ratioP1;P1;durP2;ratioP2;P2;SDS_P1;SDS_P2;PMS_P1;PMS_P2;Temp;Humidity;BMP_temperature;BMP_pressure;BME280_temperature;BME280_humidity;BME280_pressure;Samples;Min_cycle;Max_cycle;Signal;HPM_P1;HPM_P2
2022/05/24 00:00:24;;;;;;;1.55;0.80;;;12.00;92.00;;;;;;5007146;28;20033;-78
2022/05/24 00:02:50;;;;;;;3.67;0.82;;;12.00;92.20;;;;;;5007234;28;20036;-78
2022/05/24 00:05:16;;;;;;;2.83;0.85;;;11.90;92.60;;;;;;5007345;28;20391;-79
2022/05/24 00:07:42;;;;;;;2.22;0.82;;;11.90;92.10;;;;;;5006838;28;20029;-79
2022/05/24 00:10:12;;;;;;;1.33;0.70;;;11.90;92.40;;;;;;5006392;28;20034;-77
2022/05/24 00:12:40;;;;;;;2.42;0.80;;;11.90;92.50;;;;;;5007456;28;20660;-77
2022/05/24 00:15:23;;;;;;;2.05;0.73;;;11.80;92.30;;;;;;5021950;28;20033;-79
2022/05/24 00:17:56;;;;;;;2.17;0.75;;;11.80;92.50;;;;;;5021111;28;20057;-77
2022/05/24 00:20:25;;;;;;;2.75;0.75;;;11.80;92.70;;;;;;5003645;28;20037;-78
2022/05/24 00:22:52;;;;;;;2.63;0.80;;;11.70;92.80;;;;;;5021556;28;20384;-76
2022/05/24 00:25:18;;;;;;;2.38;0.70;;;11.70;92.70;;;;;;5005197;28;20057;-79
2022/05/24 00:27:45;;;;;;;5.07;0.80;;;11.60;92.80;;;;;;5021394;28;20073;-78
2022/05/24 00:30:11;;;;;;;2.97;0.73;;;11.60;92.90;;;;;;5005210;28;20133;-78
2022/05/24 00:32:36;;;;;;;2.08;0.73;;;11.50;92.90;;;;;;5003552;28;20459;-77
2022/05/24 00:35:02;;;;;;;3.60;0.80;;;11.50;93.00;;;;;;5006291;28;20044;-77
2022/05/24 00:37:28;;;;;;;1.92;0.80;;;11.50;92.90;;;;;;5008052;28;20439;-76
2022/05/24 00:39:54;;;;;;;1.65;0.68;;;11.50;93.10;;;;;;5013570;28;20480;-77
2022/05/24 00:42:26;;;;;;;2.65;0.90;;;11.40;93.20;;;;;;5002943;28;20455;-77
2022/05/24 00:45:01;;;;;;;1.48;0.60;;;11.40;92.90;;;;;;5023878;28;20697;-79
2022/05/24 00:47:56;;;;;;;2.45;0.80;;;11.40;93.30;;;;;;5026157;28;20026;-75
2022/05/24 00:50:27;;;;;;;3.25;0.70;;;11.30;93.60;;;;;;5005853;28;20042;-77
2022/05/24 00:53:04;;;;;;;1.33;0.63;;;11.40;94.00;;;;;;5005187;28;20033;-77
2022/05/24 00:55:40;;;;;;;1.35;0.57;;;11.30;93.90;;;;;;5009034;28;20049;-80
2022/05/24 00:58:37;;;;;;;1.48;0.60;;;11.30;94.20;;;;;;5024813;28;20121;-78
2022/05/24 01:01:29;;;;;;;2.05;0.80;;;11.30;94.40;;;;;;5009399;28;20030;-78
2022/05/24 01:03:55;;;;;;;2.00;0.70;;;11.20;94.50;;;;;;5018189;28;20484;-76
2022/05/24 01:06:21;;;;;;;1.15;0.70;;;11.20;94.40;;;;;;5006972;28;20057;-75
2022/05/24 01:08:47;;;;;;;0.98;0.52;;;11.10;94.40;;;;;;5009632;28;20788;-76
2022/05/24 01:11:14;;;;;;;1.38;0.50;;;11.10;94.80;;;;;;5009699;28;20038;-77
2022/05/24 01:13:41;;;;;;;1.92;0.50;;;11.00;94.70;;;;;;5007568;28;20145;-80
2022/05/24 01:16:07;;;;;;;1.52;0.68;;;11.00;95.00;;;;;;5007612;28;20484;-79
2022/05/24 01:18:33;;;;;;;1.15;0.50;;;10.90;94.70;;;;;;5007496;28;21541;-77
2022/05/24 01:21:12;;;;;;;1.65;0.50;;;10.90;94.80;;;;;;5001979;28;20465;-78
2022/05/24 01:24:03;;;;;;;1.70;0.50;;;10.80;95.20;;;;;;4998062;28;20030;-78
2022/05/24 01:26:34;;;;;;;1.10;0.60;;;10.80;95.10;;;;;;5025778;28;20586;-78
2022/05/24 01:29:04;;;;;;;0.75;0.52;;;10.70;95.10;;;;;;5024621;28;20030;-78
2022/05/24 01:37:02;;;;;;;1.17;0.60;;;10.70;95.60;;;;;;5010493;28;20088;-78
2022/05/24 01:39:29;;;;;;;1.77;0.60;;;10.60;95.80;;;;;;5033155;28;20052;-79
2022/05/24 01:41:54;;;;;;;1.23;0.50;;;10.60;95.10;;;;;;5025035;28;20155;-77
2022/05/24 01:44:28;;;;;;;1.40;0.50;;;10.50;95.40;;;;;;5009121;28;20991;-77
2022/05/24 01:46:54;;;;;;;1.75;0.50;;;10.50;95.20;;;;;;5009349;28;20384;-79
2022/05/24 01:49:34;;;;;;;3.40;0.60;;;10.50;95.40;;;;;;5004823;28;20033;-78
2022/05/24 01:52:02;;;;;;;0.65;0.50;;;10.40;95.50;;;;;;5009458;28;20033;-77
2022/05/24 01:54:30;;;;;;;1.95;0.57;;;10.40;95.40;;;;;;5006477;28;20582;-78
2022/05/24 01:57:02;;;;;;;3.28;0.50;;;10.40;95.30;;;;;;5010039;28;20065;-77
2022/05/24 01:59:28;;;;;;;1.27;0.50;;;10.40;95.40;;;;;;5005832;28;20068;-77
2022/05/24 02:01:57;;;;;;;1.33;0.60;;;10.40;95.40;;;;;;5008347;28;20033;-77
2022/05/24 02:04:25;;;;;;;0.93;0.50;;;10.40;95.30;;;;;;5007685;28;20045;-78
2022/05/24 02:07:07;;;;;;;0.90;0.47;;;10.40;95.40;;;;;;5009001;28;20729;-78
2022/05/24 02:09:35;;;;;;;1.83;0.70;;;10.40;95.40;;;;;;5006489;28;20037;-77
2022/05/24 02:12:12;;;;;;;0.65;0.40;;;10.40;95.30;;;;;;5008864;28;20038;-77
2022/05/24 02:14:44;;;;;;;1.10;0.50;;;10.40;95.30;;;;;;5009024;28;20463;-77
2022/05/24 02:17:34;;;;;;;0.73;0.45;;;10.40;95.30;;;;;;5007322;28;20851;-77
2022/05/24 02:20:02;;;;;;;1.75;0.50;;;10.40;95.10;;;;;;5008109;28;20041;-79
2022/05/24 02:22:29;;;;;;;1.05;0.30;;;10.40;95.10;;;;;;5002760;28;20022;-78
2022/05/24 02:25:01;;;;;;;1.48;0.50;;;10.40;94.80;;;;;;5022792;28;20041;-77
2022/05/24 02:27:27;;;;;;;2.92;0.75;;;10.40;94.80;;;;;;5038783;28;20459;-78
2022/05/24 02:29:54;;;;;;;0.85;0.40;;;10.40;94.90;;;;;;5008788;28;20457;-78
2022/05/24 02:32:19;;;;;;;0.90;0.40;;;10.50;94.70;;;;;;5008182;28;20639;-77
2022/05/24 02:34:45;;;;;;;1.00;0.50;;;10.50;95.00;;;;;;5008203;28;20033;-78
2022/05/24 02:37:11;;;;;;;0.43;0.40;;;10.50;95.00;;;;;;5007406;28;20029;-78
2022/05/24 02:41:28;;;;;;;0.50;0.40;;;10.50;94.90;;;;;;5007694;28;20060;-80
2022/05/24 02:42:22;;;;;;;1.15;0.50;;;10.50;94.80;;;;;;5007023;28;20477;-76
2022/05/24 02:44:48;;;;;;;0.60;0.35;;;10.50;94.80;;;;;;5008764;28;20065;-77
2022/05/24 02:47:14;;;;;;;1.33;0.55;;;10.50;94.70;;;;;;5009154;28;20117;-78
2022/05/24 02:49:40;;;;;;;0.98;0.40;;;10.50;94.70;;;;;;5021112;28;20033;-79
2022/05/24 02:52:06;;;;;;;0.65;0.40;;;10.50;94.80;;;;;;5005471;28;20037;-79
2022/05/24 02:54:31;;;;;;;0.65;0.40;;;10.50;95.00;;;;;;5007984;28;20033;-77
2022/05/24 02:56:58;;;;;;;2.08;0.50;;;10.40;94.90;;;;;;5008648;28;20026;-78
2022/05/24 02:59:24;;;;;;;0.80;0.47;;;10.40;94.90;;;;;;5007829;28;20038;-78
2022/05/24 03:01:50;;;;;;;1.85;0.70;;;10.40;95.00;;;;;;5030005;28;20036;-79
2022/05/24 03:04:15;;;;;;;1.15;0.50;;;10.40;95.30;;;;;;5005960;28;20034;-78
2022/05/24 03:09:35;;;;;;;0.70;0.40;;;10.40;95.20;;;;;;5007486;28;20397;-78
2022/05/24 03:14:51;;;;;;;0.90;0.60;;;10.50;95.40;;;;;;5006437;28;20036;-80
2022/05/24 03:17:17;;;;;;;2.00;0.60;;;10.50;95.70;;;;;;5008580;28;20040;-77
2022/05/24 03:19:44;;;;;;;1.65;0.68;;;10.50;95.90;;;;;;5007468;28;20033;-77
2022/05/24 03:22:10;;;;;;;1.15;0.52;;;10.50;95.30;;;;;;5020324;28;20032;-78
2022/05/24 03:24:36;;;;;;;2.22;0.60;;;10.40;95.50;;;;;;5006756;28;20030;-77
2022/05/24 03:27:11;;;;;;;2.25;0.60;;;10.40;95.50;;;;;;5006462;28;20420;-78
2022/05/24 03:29:38;;;;;;;3.65;0.73;;;10.40;95.90;;;;;;5004305;28;20040;-78
2022/05/24 03:32:05;;;;;;;1.48;0.80;;;10.40;95.60;;;;;;5005946;28;20064;-77
2022/05/24 03:34:31;;;;;;;2.67;0.60;;;10.40;95.70;;;;;;5021478;28;20088;-77
2022/05/24 03:36:56;;;;;;;1.05;0.60;;;10.30;96.30;;;;;;5005522;28;20061;-78
2022/05/24 03:39:22;;;;;;;2.95;0.80;;;10.40;96.70;;;;;;5005775;28;20124;-81
2022/05/24 03:41:48;;;;;;;1.30;0.70;;;10.40;96.70;;;;;;5006756;28;20041;-77
2022/05/24 03:44:13;;;;;;;2.17;0.80;;;10.40;96.20;;;;;;5022855;28;20388;-77
2022/05/24 03:46:40;;;;;;;2.40;0.82;;;10.40;96.10;;;;;;5005989;28;20037;-77
2022/05/24 03:49:05;;;;;;;1.23;0.80;;;10.40;96.40;;;;;;5004007;28;20224;-77
2022/05/24 03:51:32;;;;;;;2.42;1.00;;;10.40;96.40;;;;;;5006287;28;20113;-76
2022/05/24 03:53:57;;;;;;;4.30;1.02;;;10.30;96.40;;;;;;5022432;28;20688;-77
2022/05/24 03:56:24;;;;;;;5.20;1.00;;;10.30;96.50;;;;;;5005282;28;20148;-77
2022/05/24 03:58:50;;;;;;;3.40;1.27;;;10.30;97.20;;;;;;5007415;28;20504;-78
2022/05/24 04:01:15;;;;;;;2.28;1.08;;;10.30;97.20;;;;;;5003472;28;20025;-77
2022/05/24 04:03:41;;;;;;;3.75;1.30;;;10.30;97.50;;;;;;5003937;28;20030;-76
2022/05/24 04:06:07;;;;;;;3.05;1.08;;;10.20;97.40;;;;;;5006701;28;20032;-77
2022/05/24 04:08:33;;;;;;;2.45;1.27;;;10.20;97.50;;;;;;5004533;28;20305;-77
2022/05/24 04:11:06;;;;;;;3.13;1.30;;;10.20;97.40;;;;;;5007081;28;20042;-75
2022/05/24 04:13:33;;;;;;;3.67;1.60;;;10.10;97.50;;;;;;5005661;28;20061;-78
2022/05/24 04:16:00;;;;;;;4.28;1.55;;;10.10;97.50;;;;;;5019221;28;20072;-77
2022/05/24 04:18:26;;;;;;;2.78;1.10;;;10.10;97.60;;;;;;5006718;28;20030;-75
2022/05/24 04:20:52;;;;;;;2.58;1.17;;;10.00;97.50;;;;;;5006899;28;20029;-76
2022/05/24 04:23:19;;;;;;;3.50;1.20;;;10.00;97.50;;;;;;5006266;28;20036;-77
2022/05/24 04:25:46;;;;;;;3.03;1.20;;;9.90;97.70;;;;;;5004097;28;20469;-77
2022/05/24 04:28:11;;;;;;;4.20;1.50;;;9.90;97.70;;;;;;5021085;28;20036;-76
2022/05/24 04:30:38;;;;;;;4.78;1.92;;;9.90;97.80;;;;;;5002762;28;20037;-78
2022/05/24 04:33:03;;;;;;;3.25;1.45;;;9.90;98.00;;;;;;5019656;28;20053;-77
2022/05/24 04:35:29;;;;;;;3.47;1.58;;;9.90;98.20;;;;;;5005968;28;20037;-77
2022/05/24 04:37:55;;;;;;;4.63;1.80;;;10.00;98.30;;;;;;5006946;28;20045;-75
2022/05/24 04:42:18;;;;;;;6.57;2.10;;;10.00;98.30;;;;;;5003234;28;20045;-80
2022/05/24 04:43:06;;;;;;;5.55;1.80;;;10.10;98.30;;;;;;5007582;28;20117;-78
2022/05/24 04:45:32;;;;;;;4.68;1.73;;;10.10;98.10;;;;;;5006264;28;20113;-75
2022/05/24 04:47:58;;;;;;;5.13;2.28;;;10.10;98.10;;;;;;5021510;28;20124;-76
2022/05/24 04:50:23;;;;;;;4.45;2.00;;;10.10;97.80;;;;;;5020844;28;20499;-77
2022/05/24 04:52:49;;;;;;;5.85;2.05;;;10.10;98.00;;;;;;5007033;28;20037;-79
2022/05/24 04:55:14;;;;;;;3.80;1.80;;;10.00;98.00;;;;;;5003349;28;20026;-77
2022/05/24 04:57:40;;;;;;;4.50;1.90;;;10.10;98.00;;;;;;5007136;28;20093;-76
2022/05/24 05:00:13;;;;;;;6.82;2.70;;;10.10;98.00;;;;;;5005956;28;20033;-79
2022/05/24 05:02:39;;;;;;;6.18;1.90;;;10.20;98.40;;;;;;5005287;28;20030;-76
2022/05/24 05:05:06;;;;;;;5.25;1.88;;;10.20;98.20;;;;;;5005435;28;20365;-77
2022/05/24 05:07:33;;;;;;;4.55;1.88;;;10.20;98.20;;;;;;5021297;28;20034;-76
2022/05/24 05:09:59;;;;;;;4.32;1.60;;;10.20;98.30;;;;;;5026166;28;20092;-78
2022/05/24 05:12:26;;;;;;;5.65;2.10;;;10.10;98.10;;;;;;5004661;28;20041;-78
2022/05/24 05:14:52;;;;;;;4.43;2.00;;;10.10;98.40;;;;;;5006510;28;20104;-77
2022/05/24 05:17:19;;;;;;;5.05;1.92;;;10.10;98.60;;;;;;5003847;28;20022;-77
2022/05/24 05:19:45;;;;;;;4.10;1.73;;;10.10;98.90;;;;;;5005365;28;20117;-78
2022/05/24 05:22:11;;;;;;;5.28;1.80;;;10.20;98.70;;;;;;5005697;28;20041;-80
2022/05/24 05:24:37;;;;;;;4.75;2.10;;;10.10;98.60;;;;;;5005347;28;20061;-79
2022/05/24 05:27:04;;;;;;;5.32;2.00;;;10.10;98.60;;;;;;5004702;28;20088;-78
2022/05/24 05:32:20;;;;;;;4.15;2.22;;;10.10;98.90;;;;;;5002045;28;20052;-77
2022/05/24 05:34:47;;;;;;;4.10;2.00;;;10.10;99.10;;;;;;5006992;28;20029;-78
2022/05/24 05:37:13;;;;;;;5.57;2.55;;;10.20;99.10;;;;;;5009598;28;20026;-80
2022/05/24 05:39:39;;;;;;;4.15;2.10;;;10.30;99.00;;;;;;5009130;28;20032;-78
2022/05/24 05:42:05;;;;;;;5.22;2.30;;;10.30;99.00;;;;;;5006542;28;20034;-77
2022/05/24 05:44:31;;;;;;;4.80;2.50;;;10.40;99.10;;;;;;5024112;28;20022;-81
2022/05/24 05:46:56;;;;;;;6.63;3.00;;;10.40;99.00;;;;;;5010579;28;20380;-79
2022/05/24 05:49:22;;;;;;;5.55;2.42;;;10.50;98.90;;;;;;5006052;28;20034;-78
2022/05/24 05:51:48;;;;;;;3.97;2.53;;;10.50;98.60;;;;;;5005734;28;20026;-80
2022/05/24 05:54:14;;;;;;;5.55;2.28;;;10.60;98.80;;;;;;5008719;28;20044;-79
2022/05/24 05:56:40;;;;;;;5.78;2.50;;;10.60;98.90;;;;;;5007621;28;20133;-79
2022/05/24 05:59:06;;;;;;;8.82;2.67;;;10.70;99.00;;;;;;5006445;28;20380;-79
2022/05/24 06:01:32;;;;;;;5.57;2.30;;;10.80;98.70;;;;;;5004571;28;20452;-78
2022/05/24 06:03:58;;;;;;;4.53;1.90;;;10.90;98.30;;;;;;5001385;28;20456;-77
2022/05/24 06:06:28;;;;;;;6.53;2.05;;;11.00;98.20;;;;;;5035252;28;20181;-81
2022/05/24 06:08:54;;;;;;;5.07;1.90;;;11.10;97.80;;;;;;5007690;28;20068;-79
2022/05/24 06:11:19;;;;;;;4.60;1.70;;;11.20;97.30;;;;;;5004619;28;20134;-78
2022/05/24 06:13:46;;;;;;;6.65;1.85;;;11.40;97.20;;;;;;5002382;28;20145;-79
2022/05/24 06:16:13;;;;;;;4.25;1.75;;;11.50;97.00;;;;;;5002741;28;20029;-80
2022/05/24 06:18:39;;;;;;;5.72;1.88;;;11.60;96.60;;;;;;5006067;28;20029;-79
2022/05/24 06:21:05;;;;;;;6.20;1.90;;;11.70;96.70;;;;;;5005712;28;20547;-79
2022/05/24 06:23:31;;;;;;;4.13;1.90;;;11.70;96.50;;;;;;5005994;28;20544;-78
2022/05/24 06:25:57;;;;;;;4.32;1.83;;;11.80;96.30;;;;;;4998501;28;20072;-76
2022/05/24 06:28:23;;;;;;;5.32;1.70;;;11.80;96.30;;;;;;5018792;28;20441;-79
2022/05/24 06:30:49;;;;;;;4.40;1.67;;;11.70;96.20;;;;;;5004585;28;20030;-80
2022/05/24 06:33:15;;;;;;;4.03;1.67;;;11.70;96.40;;;;;;5003206;28;20116;-79
2022/05/24 06:35:41;;;;;;;2.67;1.42;;;11.80;96.10;;;;;;5007786;28;20424;-78
2022/05/24 06:38:07;;;;;;;4.60;1.80;;;11.90;96.20;;;;;;5001671;28;20034;-78
2022/05/24 06:40:33;;;;;;;4.63;1.50;;;12.00;96.00;;;;;;4999996;28;20042;-77
2022/05/24 06:42:59;;;;;;;2.65;1.15;;;12.10;94.30;;;;;;5008035;28;20034;-74
2022/05/24 06:45:25;;;;;;;4.45;1.40;;;12.10;93.60;;;;;;4993430;28;20096;-75
2022/05/24 06:47:51;;;;;;;3.00;1.30;;;12.00;93.90;;;;;;5006977;28;20029;-76
2022/05/24 06:50:17;;;;;;;2.95;1.30;;;12.00;94.20;;;;;;5015928;28;20065;-77
2022/05/24 06:52:44;;;;;;;2.90;1.15;;;11.90;93.90;;;;;;5035472;28;20034;-76
2022/05/24 06:55:10;;;;;;;3.03;1.30;;;11.90;93.80;;;;;;5011804;28;20088;-73
2022/05/24 06:57:36;;;;;;;3.78;1.50;;;11.90;93.70;;;;;;5009138;28;20060;-75
2022/05/24 07:02:49;;;;;;;3.72;2.03;;;12.00;94.00;;;;;;5001706;28;20033;-70
2022/05/24 07:05:19;;;;;;;4.22;1.98;;;12.20;93.40;;;;;;5003469;28;20063;-73
2022/05/24 07:07:45;;;;;;;4.72;2.08;;;12.30;93.10;;;;;;5026392;28;20361;-72
2022/05/24 07:10:15;;;;;;;3.75;2.30;;;12.40;93.20;;;;;;5005890;28;20057;-78
2022/05/24 07:12:42;;;;;;;3.60;2.08;;;12.40;92.50;;;;;;4998945;28;20058;-72
2022/05/24 07:15:08;;;;;;;4.13;2.20;;;12.50;92.70;;;;;;5004443;28;20038;-74
2022/05/24 07:17:34;;;;;;;4.38;2.30;;;12.50;92.00;;;;;;5003575;28;20053;-78
2022/05/24 07:20:00;;;;;;;3.13;1.67;;;12.50;91.90;;;;;;5028732;28;20030;-72
2022/05/24 07:22:26;;;;;;;4.55;1.80;;;12.50;91.30;;;;;;5020870;28;20037;-75
2022/05/24 07:24:52;;;;;;;4.20;2.30;;;12.60;91.60;;;;;;5004258;28;20033;-72
2022/05/24 07:27:20;;;;;;;3.30;1.80;;;12.60;92.10;;;;;;5008100;28;20033;-74
2022/05/24 07:29:46;;;;;;;4.55;2.42;;;12.60;92.20;;;;;;5008654;28;20052;-77
2022/05/24 07:32:13;;;;;;;3.20;2.05;;;12.60;90.80;;;;;;5023733;28;20046;-75
2022/05/24 07:34:38;;;;;;;4.72;2.20;;;12.70;91.60;;;;;;5008144;28;20034;-76
2022/05/24 07:37:07;;;;;;;5.85;2.20;;;12.70;91.20;;;;;;5007166;28;20026;-75
2022/05/24 07:39:33;;;;;;;3.30;2.15;;;12.70;91.40;;;;;;5009254;28;20066;-75
2022/05/24 07:47:33;;;;;;;3.55;2.45;;;12.70;91.60;;;;;;5006083;28;20052;-73
2022/05/24 07:49:59;;;;;;;3.38;2.17;;;12.80;91.40;;;;;;5000765;28;20396;-73
2022/05/24 07:52:24;;;;;;;2.88;1.73;;;12.80;91.20;;;;;;5000392;28;20413;-75
2022/05/24 07:54:51;;;;;;;2.78;1.88;;;12.80;90.50;;;;;;5007680;28;20044;-74
2022/05/24 07:57:17;;;;;;;3.22;1.75;;;12.80;91.00;;;;;;5007339;28;20030;-73
2022/05/24 07:59:47;;;;;;;3.70;1.88;;;12.80;90.50;;;;;;4997041;28;20027;-74
2022/05/24 08:02:18;;;;;;;4.03;1.55;;;12.80;90.30;;;;;;4988301;28;20040;-74
2022/05/24 08:04:43;;;;;;;2.85;1.48;;;12.90;90.50;;;;;;4988948;28;20029;-74
2022/05/24 08:07:09;;;;;;;3.15;1.45;;;13.00;89.70;;;;;;4996256;28;20649;-73
2022/05/24 08:09:36;;;;;;;2.75;1.50;;;13.10;89.00;;;;;;5014457;28;20091;-70
2022/05/24 08:12:02;;;;;;;2.75;1.45;;;13.20;90.10;;;;;;5005922;28;20036;-72
2022/05/24 08:14:28;;;;;;;2.67;1.40;;;13.20;88.10;;;;;;5006026;28;20048;-76
2022/05/24 08:16:53;;;;;;;2.85;1.60;;;13.20;88.40;;;;;;5013080;28;20559;-73
2022/05/24 08:19:19;;;;;;;3.42;1.50;;;13.20;89.30;;;;;;5000735;28;20777;-73
2022/05/24 08:21:45;;;;;;;2.70;1.48;;;13.20;90.20;;;;;;4995895;28;20158;-74
2022/05/24 08:24:11;;;;;;;3.90;1.30;;;13.40;89.80;;;;;;4987367;28;20121;-73
2022/05/24 08:26:37;;;;;;;3.47;1.35;;;13.50;89.90;;;;;;4994397;28;20106;-70
2022/05/24 08:29:03;;;;;;;2.55;1.10;;;13.60;87.60;;;;;;5005040;28;20030;-71
2022/05/24 08:31:29;;;;;;;2.20;1.20;;;13.90;87.60;;;;;;5005928;28;20037;-71
2022/05/24 08:33:55;;;;;;;2.40;1.02;;;14.20;85.70;;;;;;5008705;28;20026;-75
2022/05/24 08:36:20;;;;;;;2.38;1.13;;;14.10;85.30;;;;;;5006737;28;20117;-73
2022/05/24 08:38:46;;;;;;;2.65;1.15;;;14.10;84.40;;;;;;5003982;28;20046;-71
2022/05/24 08:41:27;;;;;;;2.92;1.13;;;14.10;84.00;;;;;;4997121;28;20048;-72
2022/05/24 08:49:45;;;;;;;1.80;0.80;;;14.50;82.40;;;;;;5005062;28;20092;-70
2022/05/24 08:52:12;;;;;;;1.35;0.70;;;14.50;83.60;;;;;;4988869;28;20026;-75
2022/05/24 08:54:44;;;;;;;1.35;0.80;;;14.50;79.80;;;;;;4987333;28;20030;-74
2022/05/24 08:57:44;;;;;;;2.97;0.90;;;14.50;80.40;;;;;;4988652;28;20031;-71
2022/05/24 09:00:15;;;;;;;1.10;0.80;;;14.40;81.10;;;;;;4988852;28;20046;-72
2022/05/24 09:02:47;;;;;;;1.35;0.80;;;14.50;81.50;;;;;;5032809;28;20531;-77
2022/05/24 09:05:23;;;;;;;2.60;0.80;;;14.40;81.90;;;;;;5030425;28;20486;-71
2022/05/24 09:07:59;;;;;;;1.05;0.77;;;14.40;81.60;;;;;;5015103;28;20109;-71
2022/05/24 09:10:33;;;;;;;1.38;0.80;;;14.60;80.40;;;;;;4990708;28;20121;-72
2022/05/24 09:13:20;;;;;;;3.15;0.88;;;14.80;80.70;;;;;;5042001;28;20026;-73
2022/05/24 09:16:07;;;;;;;1.45;0.80;;;14.80;77.40;;;;;;5022209;28;20073;-72
2022/05/24 09:19:16;;;;;;;1.70;0.88;;;14.70;78.60;;;;;;4994936;28;20034;-75
2022/05/24 09:21:43;;;;;;;3.38;0.88;;;14.50;81.10;;;;;;5006581;28;20039;-73
2022/05/24 09:24:49;;;;;;;1.45;0.88;;;14.40;80.00;;;;;;5007301;28;20030;-73
2022/05/24 09:27:16;;;;;;;2.67;0.80;;;14.40;80.90;;;;;;4991935;28;20026;-76
2022/05/24 09:30:07;;;;;;;1.45;0.75;;;14.70;80.90;;;;;;4996822;28;20030;-74
2022/05/24 09:32:40;;;;;;;1.40;0.60;;;15.00;80.70;;;;;;5000480;28;20072;-73
2022/05/24 09:35:09;;;;;;;1.40;0.65;;;15.20;79.50;;;;;;5038313;28;20096;-72
2022/05/24 09:37:35;;;;;;;0.90;0.70;;;15.50;77.10;;;;;;5011192;28;20034;-73
2022/05/24 09:40:29;;;;;;;1.45;0.70;;;15.60;78.30;;;;;;5004309;28;20080;-71
2022/05/24 09:42:55;;;;;;;2.00;0.60;;;15.70;77.10;;;;;;4991945;28;20492;-72
2022/05/24 09:45:26;;;;;;;1.33;0.75;;;15.90;76.00;;;;;;5001419;28;20109;-74
2022/05/24 09:47:58;;;;;;;0.80;0.50;;;16.00;75.20;;;;;;5010970;28;20061;-72
2022/05/24 09:50:34;;;;;;;0.75;0.45;;;15.70;74.50;;;;;;5010067;28;20045;-71
2022/05/24 09:53:03;;;;;;;1.00;0.40;;;15.60;75.60;;;;;;5041577;28;20116;-73
2022/05/24 09:55:41;;;;;;;0.82;0.32;;;15.70;74.60;;;;;;5008644;28;20065;-73
2022/05/24 09:58:34;;;;;;;0.85;0.40;;;16.00;73.20;;;;;;5010124;28;20026;-73
2022/05/24 10:01:02;;;;;;;1.02;0.40;;;16.00;71.50;;;;;;5008119;28;20132;-73
2022/05/24 10:03:37;;;;;;;1.25;0.40;;;16.10;73.60;;;;;;5009338;28;20026;-73
2022/05/24 10:06:19;;;;;;;1.65;0.60;;;16.20;72.80;;;;;;5008815;28;20109;-72
2022/05/24 10:08:49;;;;;;;0.60;0.40;;;16.40;73.90;;;;;;5010205;28;20041;-74
2022/05/24 10:11:41;;;;;;;1.55;0.40;;;16.60;71.90;;;;;;5010444;28;20041;-74
2022/05/24 10:14:41;;;;;;;2.50;0.50;;;16.60;71.60;;;;;;4984429;28;20544;-73
2022/05/24 10:17:18;;;;;;;1.35;0.60;;;16.40;70.50;;;;;;4993426;28;20725;-75
2022/05/24 10:20:05;;;;;;;2.40;0.70;;;16.00;73.20;;;;;;5009874;28;20762;-73
2022/05/24 10:22:36;;;;;;;4.15;0.60;;;15.80;75.00;;;;;;5023033;28;20018;-74
2022/05/24 10:25:15;;;;;;;1.15;0.57;;;15.60;74.40;;;;;;4999145;28;20033;-71
2022/05/24 10:28:12;;;;;;;1.45;0.65;;;15.60;73.20;;;;;;5016597;28;20148;-74
2022/05/24 10:30:55;;;;;;;1.80;1.10;;;15.60;73.50;;;;;;5009181;28;20033;-76
2022/05/24 10:39:55;;;;;;;3.08;1.45;;;16.00;75.90;;;;;;5009385;28;20113;-72
2022/05/24 10:43:00;;;;;;;2.95;1.20;;;16.30;74.80;;;;;;4998858;28;20030;-73
2022/05/24 10:45:49;;;;;;;2.03;0.70;;;16.90;73.40;;;;;;4989064;28;20045;-75
2022/05/24 10:48:24;;;;;;;2.80;1.50;;;17.20;70.90;;;;;;5005731;28;20030;-76
2022/05/24 10:51:00;;;;;;;4.20;1.70;;;17.20;71.10;;;;;;5008772;28;20093;-75
2022/05/24 10:53:38;;;;;;;2.97;1.33;;;16.80;73.70;;;;;;5009845;28;20034;-76
2022/05/24 10:56:29;;;;;;;2.95;1.30;;;16.50;75.60;;;;;;5009928;28;20171;-74
2022/05/24 10:59:03;;;;;;;4.38;1.42;;;16.50;74.80;;;;;;5004811;28;20033;-72
2022/05/24 11:01:33;;;;;;;2.95;1.35;;;16.30;75.10;;;;;;5006858;28;20558;-74
2022/05/24 11:04:10;;;;;;;4.88;1.35;;;16.00;75.60;;;;;;5008064;28;20141;-71
2022/05/24 11:06:39;;;;;;;5.18;2.00;;;15.60;82.30;;;;;;4991430;28;20093;-73
2022/05/24 11:09:05;;;;;;;6.50;2.05;;;15.20;90.10;;;;;;5003154;28;20388;-74
2022/05/24 11:11:43;;;;;;;3.50;1.55;;;14.90;92.30;;;;;;4997953;28;20022;-75
2022/05/24 11:14:34;;;;;;;5.57;1.70;;;14.60;92.60;;;;;;5007802;28;20076;-74
2022/05/24 11:17:01;;;;;;;3.45;1.88;;;14.30;92.80;;;;;;5006542;28;20052;-73
2022/05/24 11:19:35;;;;;;;3.63;1.50;;;14.10;92.90;;;;;;5007246;28;20037;-74
2022/05/24 11:22:22;;;;;;;5.32;1.70;;;14.10;93.50;;;;;;5006977;28;20026;-74
2022/05/24 11:24:51;;;;;;;7.93;1.90;;;14.00;93.80;;;;;;5007533;28;20113;-73
2022/05/24 11:27:32;;;;;;;5.27;1.70;;;14.40;94.60;;;;;;5011116;28;20362;-74
2022/05/24 11:30:10;;;;;;;4.30;1.55;;;15.70;92.30;;;;;;5004704;28;20049;-76
2022/05/24 11:33:02;;;;;;;3.10;1.23;;;15.80;92.20;;;;;;4998878;28;20125;-72
2022/05/24 11:35:35;;;;;;;2.28;1.10;;;15.50;90.40;;;;;;4998350;28;20033;-74
2022/05/24 11:38:22;;;;;;;3.13;1.15;;;15.30;89.70;;;;;;5009056;28;20155;-75
2022/05/24 11:41:26;;;;;;;3.70;1.08;;;15.00;89.60;;;;;;4997430;28;20061;-74
2022/05/24 11:43:52;;;;;;;3.65;1.00;;;14.60;89.30;;;;;;4987806;28;20034;-74
2022/05/24 11:46:32;;;;;;;2.30;1.10;;;14.40;90.10;;;;;;4989780;28;20034;-73
2022/05/24 11:48:59;;;;;;;5.57;1.42;;;14.30;91.70;;;;;;5000450;28;20080;-74
2022/05/24 11:51:47;;;;;;;4.10;1.17;;;14.10;91.50;;;;;;5008409;28;20456;-74
2022/05/24 11:54:17;;;;;;;3.58;1.20;;;13.90;91.50;;;;;;5023373;28;20825;-75
2022/05/24 11:56:52;;;;;;;;;;;13.60;92.80;;;;;;5003574;28;20037;-74
2022/05/24 11:59:40;;;;;;;2.88;1.08;;;13.30;93.40;;;;;;5010489;28;20248;-73
2022/05/24 12:02:21;;;;;;;1.70;1.15;;;13.10;93.30;;;;;;5007667;28;20037;-77
2022/05/24 12:07:56;;;;;;;;;;;12.60;94.50;;;;;;5003378;28;20091;-77
2022/05/24 12:10:22;;;;;;;1.50;1.00;;;12.30;94.00;;;;;;5039687;28;19953;-79
2022/05/24 12:13:03;;;;;;;2.58;0.85;;;12.20;94.60;;;;;;5002164;28;20500;-74
2022/05/24 12:15:32;;;;;;;1.52;0.85;;;12.00;92.80;;;;;;5017984;28;20160;-74
2022/05/24 12:17:58;;;;;;;3.65;1.13;;;11.80;93.60;;;;;;5005592;28;20389;-72
2022/05/24 12:20:26;;;;;;;3.03;1.40;;;11.60;95.20;;;;;;5008253;28;20033;-75
2022/05/24 12:23:32;;;;;;;2.08;1.02;;;11.60;95.80;;;;;;5002569;28;20034;-73
2022/05/24 12:25:59;;;;;;;3.13;1.17;;;11.50;95.90;;;;;;5002685;28;20034;-73
2022/05/24 12:28:41;;;;;;;3.97;1.50;;;11.40;96.30;;;;;;5037098;28;20041;-73
2022/05/24 12:31:12;;;;;;;3.50;1.30;;;11.40;95.90;;;;;;5019644;28;20065;-73
2022/05/24 12:33:54;;;;;;;3.17;1.30;;;11.30;96.70;;;;;;5005863;28;20080;-75
2022/05/24 12:36:40;;;;;;;3.00;1.15;;;11.20;96.50;;;;;;5006628;28;20516;-73
2022/05/24 12:39:11;;;;;;;3.60;1.35;;;11.20;96.20;;;;;;5007538;28;20025;-73
2022/05/24 12:41:42;;;;;;;3.13;1.27;;;11.20;96.10;;;;;;5024761;28;20377;-73
2022/05/24 12:44:11;;;;;;;4.68;1.70;;;11.10;96.50;;;;;;5017699;28;20026;-72
2022/05/24 12:46:37;;;;;;;5.70;1.50;;;11.10;97.70;;;;;;5005393;28;20038;-73
2022/05/24 12:49:27;;;;;;;3.03;1.50;;;11.10;97.70;;;;;;5000210;28;20556;-78
2022/05/24 12:52:12;;;;;;;2.83;1.17;;;11.10;97.90;;;;;;5010342;28;20065;-76
2022/05/24 12:54:52;;;;;;;3.25;1.50;;;11.20;96.60;;;;;;5011916;28;20025;-76
2022/05/24 12:57:21;;;;;;;4.25;1.70;;;11.20;97.20;;;;;;5010487;28;20036;-75
2022/05/24 12:59:55;;;;;;;3.78;1.58;;;11.30;98.20;;;;;;5012015;28;20076;-76
2022/05/24 13:02:30;;;;;;;3.85;1.70;;;11.40;98.10;;;;;;5009928;28;20045;-75
2022/05/24 13:05:02;;;;;;;2.70;1.30;;;11.40;98.10;;;;;;5006749;28;20050;-73
2022/05/24 13:07:35;;;;;;;3.35;1.45;;;11.50;97.50;;;;;;4992902;28;20030;-74
2022/05/24 13:10:02;;;;;;;3.58;1.40;;;11.50;97.50;;;;;;4990595;28;20069;-73
2022/05/24 13:12:28;;;;;;;4.00;1.65;;;11.50;97.40;;;;;;5003624;28;20396;-73
2022/05/24 13:15:02;;;;;;;2.65;1.27;;;11.60;97.70;;;;;;5025821;28;20030;-73
2022/05/24 13:17:37;;;;;;;3.85;1.65;;;11.60;97.70;;;;;;5042731;28;20376;-74
2022/05/24 13:20:07;;;;;;;4.18;1.27;;;11.60;97.10;;;;;;5008907;28;20033;-72
2022/05/24 13:22:43;;;;;;;3.65;1.30;;;11.70;96.80;;;;;;5010657;28;20539;-73
2022/05/24 13:25:23;;;;;;;4.43;1.40;;;11.70;96.20;;;;;;5009760;28;20147;-72
2022/05/24 13:27:55;;;;;;;7.57;1.67;;;11.70;95.60;;;;;;5042797;28;20033;-74
2022/05/24 13:33:47;;;;;;;6.13;1.58;;;12.50;95.70;;;;;;4991410;28;20056;-73
2022/05/24 13:36:13;;;;;;;5.75;1.77;;;12.80;96.20;;;;;;5038645;28;20383;-73
2022/05/24 13:38:40;;;;;;;10.57;1.95;;;12.90;95.20;;;;;;5009057;28;20034;-75
2022/05/24 13:41:08;;;;;;;11.20;1.70;;;12.90;94.90;;;;;;4990014;28;20026;-73
2022/05/24 13:43:44;;;;;;;6.20;1.42;;;12.80;93.90;;;;;;4991459;28;20035;-73
2022/05/24 13:46:21;;;;;;;8.18;1.30;;;12.70;95.20;;;;;;5006692;28;20049;-73
2022/05/24 13:48:57;;;;;;;8.52;1.90;;;12.60;94.90;;;;;;5011443;28;20018;-74